sensor_id;sensor_type;location;lat;lon;timestamp;P1;durP1;ratioP1;P2;durP2;ratioP2
69979;SDS011;57318;56.232;43.944;2023-05-19T00:01:06;17.30;;;9.38;;
69979;SDS011;57318;56.232;43.944;2023-05-19T00:03:33;15.57;;;9.20;;
69979;SDS011;57318;56.232;43.944;2023-05-19T00:06:05;12.75;;;8.30;;
69979;SDS011;57318;56.232;43.944;2023-05-19T00:08:35;12.85;;;8.23;;
69979;SDS011;57318;56.232;43.944;2023-05-19T00:11:03;17.15;;;9.30;;
69979;SDS011;57318;56.232;43.944;2023-05-19T00:13:29;22.70;;;10.73;;
69979;SDS011;57318;56.232;43.944;2023-05-19T00:15:55;16.83;;;9.38;;
69979;SDS011;57318;56.232;43.944;2023-05-19T00:18:21;16.52;;;10.27;;
69979;SDS011;57318;56.232;43.944;2023-05-19T00:20:47;17.27;;;11.68;;
69979;SDS011;57318;56.232;43.944;2023-05-19T00:23:13;18.13;;;11.00;;
69979;SDS011;57318;56.232;43.944;2023-05-19T00:25:39;20.17;;;11.57;;
69979;SDS011;57318;56.232;43.944;2023-05-19T00:28:05;15.70;;;10.00;;
69979;SDS011;57318;56.232;43.944;2023-05-19T00:30:31;15.37;;;10.00;;
69979;SDS011;57318;56.232;43.944;2023-05-19T00:32:57;16.08;;;9.75;;
69979;SDS011;57318;56.232;43.944;2023-05-19T00:35:22;20.23;;;10.03;;
69979;SDS011;57318;56.232;43.944;2023-05-19T00:37:49;10.45;;;5.20;;
69979;SDS011;57318;56.232;43.944;2023-05-19T00:40:14;6.70;;;4.63;;
69979;SDS011;57318;56.232;43.944;2023-05-19T00:42:40;10.52;;;5.75;;
69979;SDS011;57318;56.232;43.944;2023-05-19T00:45:06;10.67;;;6.53;;
69979;SDS011;57318;56.232;43.944;2023-05-19T00:47:32;10.27;;;6.68;;
69979;SDS011;57318;56.232;43.944;2023-05-19T00:49:58;8.65;;;5.93;;
69979;SDS011;57318;56.232;43.944;2023-05-19T00:52:24;9.73;;;6.60;;
69979;SDS011;57318;56.232;43.944;2023-05-19T00:54:51;11.73;;;7.20;;
69979;SDS011;57318;56.232;43.944;2023-05-19T00:59:45;12.73;;;7.53;;
69979;SDS011;57318;56.232;43.944;2023-05-19T01:04:37;17.10;;;9.90;;
69979;SDS011;57318;56.232;43.944;2023-05-19T01:07:06;16.05;;;9.05;;
69979;SDS011;57318;56.232;43.944;2023-05-19T01:09:32;22.98;;;11.25;;
69979;SDS011;57318;56.232;43.944;2023-05-19T01:11:59;21.92;;;11.50;;
69979;SDS011;57318;56.232;43.944;2023-05-19T01:14:25;24.15;;;13.05;;
69979;SDS011;57318;56.232;43.944;2023-05-19T01:17:15;24.35;;;13.70;;
69979;SDS011;57318;56.232;43.944;2023-05-19T01:19:58;25.08;;;14.10;;
69979;SDS011;57318;56.232;43.944;2023-05-19T01:25:56;25.50;;;13.82;;
69979;SDS011;57318;56.232;43.944;2023-05-19T01:31:31;27.55;;;15.23;;
69979;SDS011;57318;56.232;43.944;2023-05-19T01:33:58;28.67;;;16.35;;
69979;SDS011;57318;56.232;43.944;2023-05-19T01:36:25;32.28;;;21.13;;
69979;SDS011;57318;56.232;43.944;2023-05-19T01:38:53;29.60;;;18.60;;
69979;SDS011;57318;56.232;43.944;2023-05-19T01:41:21;25.17;;;16.83;;
69979;SDS011;57318;56.232;43.944;2023-05-19T01:43:49;21.40;;;13.27;;
69979;SDS011;57318;56.232;43.944;2023-05-19T01:46:15;17.25;;;11.65;;
69979;SDS011;57318;56.232;43.944;2023-05-19T01:51:08;15.45;;;8.40;;
69979;SDS011;57318;56.232;43.944;2023-05-19T01:53:34;15.77;;;8.97;;
69979;SDS011;57318;56.232;43.944;2023-05-19T01:56:00;15.35;;;9.52;;
69979;SDS011;57318;56.232;43.944;2023-05-19T01:58:45;12.55;;;8.07;;
69979;SDS011;57318;56.232;43.944;2023-05-19T02:09:14;10.83;;;6.70;;
69979;SDS011;57318;56.232;43.944;2023-05-19T02:11:53;10.52;;;6.68;;
69979;SDS011;57318;56.232;43.944;2023-05-19T02:14:28;10.13;;;6.72;;
69979;SDS011;57318;56.232;43.944;2023-05-19T02:17:03;10.30;;;6.22;;
69979;SDS011;57318;56.232;43.944;2023-05-19T02:19:31;9.43;;;6.28;;
69979;SDS011;57318;56.232;43.944;2023-05-19T02:21:58;9.55;;;5.80;;
69979;SDS011;57318;56.232;43.944;2023-05-19T02:24:24;10.97;;;6.17;;
69979;SDS011;57318;56.232;43.944;2023-05-19T02:26:50;8.38;;;5.80;;
69979;SDS011;57318;56.232;43.944;2023-05-19T02:29:17;7.60;;;5.75;;
69979;SDS011;57318;56.232;43.944;2023-05-19T02:34:09;8.15;;;6.38;;
69979;SDS011;57318;56.232;43.944;2023-05-19T02:36:36;12.23;;;6.35;;
69979;SDS011;57318;56.232;43.944;2023-05-19T02:39:05;10.18;;;6.82;;
69979;SDS011;57318;56.232;43.944;2023-05-19T02:41:31;10.88;;;7.03;;
69979;SDS011;57318;56.232;43.944;2023-05-19T02:43:57;11.83;;;7.33;;
69979;SDS011;57318;56.232;43.944;2023-05-19T02:46:23;16.13;;;7.90;;
69979;SDS011;57318;56.232;43.944;2023-05-19T02:48:49;13.07;;;7.90;;
69979;SDS011;57318;56.232;43.944;2023-05-19T02:51:16;12.32;;;8.57;;
69979;SDS011;57318;56.232;43.944;2023-05-19T02:53:41;15.40;;;8.97;;
69979;SDS011;57318;56.232;43.944;2023-05-19T02:56:07;16.23;;;9.60;;
69979;SDS011;57318;56.232;43.944;2023-05-19T02:58:33;16.90;;;9.27;;
69979;SDS011;57318;56.232;43.944;2023-05-19T03:00:59;16.10;;;10.50;;
69979;SDS011;57318;56.232;43.944;2023-05-19T03:03:25;15.98;;;9.90;;
69979;SDS011;57318;56.232;43.944;2023-05-19T03:05:51;16.55;;;10.20;;
69979;SDS011;57318;56.232;43.944;2023-05-19T03:10:44;14.80;;;10.23;;
69979;SDS011;57318;56.232;43.944;2023-05-19T03:13:11;15.02;;;9.98;;
69979;SDS011;57318;56.232;43.944;2023-05-19T03:15:37;16.08;;;10.52;;
69979;SDS011;57318;56.232;43.944;2023-05-19T03:18:02;15.03;;;10.00;;
69979;SDS011;57318;56.232;43.944;2023-05-19T03:20:28;15.15;;;10.00;;
69979;SDS011;57318;56.232;43.944;2023-05-19T03:22:57;15.43;;;10.25;;
69979;SDS011;57318;56.232;43.944;2023-05-19T03:25:24;17.58;;;10.68;;
69979;SDS011;57318;56.232;43.944;2023-05-19T03:27:50;15.37;;;9.90;;
69979;SDS011;57318;56.232;43.944;2023-05-19T03:30:15;17.47;;;11.63;;
69979;SDS011;57318;56.232;43.944;2023-05-19T03:32:41;23.57;;;10.47;;
69979;SDS011;57318;56.232;43.944;2023-05-19T03:35:07;20.80;;;10.60;;
69979;SDS011;57318;56.232;43.944;2023-05-19T03:37:33;16.83;;;11.27;;
69979;SDS011;57318;56.232;43.944;2023-05-19T03:39:58;22.50;;;12.13;;
69979;SDS011;57318;56.232;43.944;2023-05-19T03:42:24;17.27;;;11.10;;
69979;SDS011;57318;56.232;43.944;2023-05-19T03:44:50;30.90;;;14.70;;
69979;SDS011;57318;56.232;43.944;2023-05-19T03:47:16;23.57;;;12.33;;
69979;SDS011;57318;56.232;43.944;2023-05-19T03:49:42;21.15;;;11.70;;
69979;SDS011;57318;56.232;43.944;2023-05-19T03:52:07;31.17;;;13.33;;
69979;SDS011;57318;56.232;43.944;2023-05-19T03:54:34;36.30;;;17.75;;
69979;SDS011;57318;56.232;43.944;2023-05-19T03:57:00;30.42;;;13.45;;
69979;SDS011;57318;56.232;43.944;2023-05-19T03:59:27;26.67;;;12.23;;
69979;SDS011;57318;56.232;43.944;2023-05-19T04:01:53;21.38;;;11.98;;
69979;SDS011;57318;56.232;43.944;2023-05-19T04:04:18;19.88;;;11.98;;
69979;SDS011;57318;56.232;43.944;2023-05-19T04:06:45;20.25;;;12.43;;
69979;SDS011;57318;56.232;43.944;2023-05-19T04:09:13;24.60;;;13.18;;
69979;SDS011;57318;56.232;43.944;2023-05-19T04:11:40;17.48;;;12.00;;
69979;SDS011;57318;56.232;43.944;2023-05-19T04:16:33;26.73;;;13.65;;
69979;SDS011;57318;56.232;43.944;2023-05-19T04:18:59;20.10;;;13.57;;
69979;SDS011;57318;56.232;43.944;2023-05-19T04:21:25;22.13;;;13.02;;
69979;SDS011;57318;56.232;43.944;2023-05-19T04:23:51;25.00;;;16.38;;
69979;SDS011;57318;56.232;43.944;2023-05-19T04:26:17;20.83;;;12.17;;
69979;SDS011;57318;56.232;43.944;2023-05-19T04:28:45;24.67;;;15.07;;
69979;SDS011;57318;56.232;43.944;2023-05-19T04:33:38;23.50;;;15.40;;
69979;SDS011;57318;56.232;43.944;2023-05-19T04:36:05;24.00;;;15.95;;
69979;SDS011;57318;56.232;43.944;2023-05-19T04:38:36;20.02;;;14.27;;
69979;SDS011;57318;56.232;43.944;2023-05-19T04:41:07;30.98;;;18.58;;
69979;SDS011;57318;56.232;43.944;2023-05-19T04:43:36;27.95;;;16.35;;
69979;SDS011;57318;56.232;43.944;2023-05-19T04:46:06;26.05;;;15.52;;
69979;SDS011;57318;56.232;43.944;2023-05-19T04:48:38;28.75;;;15.57;;
69979;SDS011;57318;56.232;43.944;2023-05-19T04:51:06;26.73;;;15.95;;
69979;SDS011;57318;56.232;43.944;2023-05-19T04:53:32;26.92;;;15.90;;
69979;SDS011;57318;56.232;43.944;2023-05-19T04:55:58;32.77;;;14.27;;
69979;SDS011;57318;56.232;43.944;2023-05-19T04:58:25;25.00;;;14.32;;
69979;SDS011;57318;56.232;43.944;2023-05-19T05:00:51;21.85;;;13.60;;
69979;SDS011;57318;56.232;43.944;2023-05-19T05:03:21;28.02;;;15.00;;
69979;SDS011;57318;56.232;43.944;2023-05-19T05:05:47;39.80;;;18.23;;
69979;SDS011;57318;56.232;43.944;2023-05-19T05:08:13;26.80;;;14.97;;
69979;SDS011;57318;56.232;43.944;2023-05-19T05:10:40;21.40;;;14.32;;
69979;SDS011;57318;56.232;43.944;2023-05-19T05:13:06;25.10;;;14.40;;
69979;SDS011;57318;56.232;43.944;2023-05-19T05:15:32;29.05;;;15.68;;
69979;SDS011;57318;56.232;43.944;2023-05-19T05:17:59;29.63;;;17.27;;
69979;SDS011;57318;56.232;43.944;2023-05-19T05:20:25;25.73;;;16.27;;
69979;SDS011;57318;56.232;43.944;2023-05-19T05:22:52;31.17;;;16.38;;
69979;SDS011;57318;56.232;43.944;2023-05-19T05:25:18;28.23;;;17.00;;
69979;SDS011;57318;56.232;43.944;2023-05-19T05:27:45;31.33;;;16.70;;
69979;SDS011;57318;56.232;43.944;2023-05-19T05:30:11;22.13;;;15.13;;
69979;SDS011;57318;56.232;43.944;2023-05-19T05:32:37;26.98;;;16.45;;
69979;SDS011;57318;56.232;43.944;2023-05-19T05:35:03;34.07;;;16.43;;
69979;SDS011;57318;56.232;43.944;2023-05-19T05:39:55;37.05;;;19.60;;
69979;SDS011;57318;56.232;43.944;2023-05-19T05:42:20;36.73;;;21.17;;
69979;SDS011;57318;56.232;43.944;2023-05-19T05:44:46;38.47;;;22.47;;
69979;SDS011;57318;56.232;43.944;2023-05-19T05:47:12;51.17;;;27.17;;
69979;SDS011;57318;56.232;43.944;2023-05-19T05:49:38;48.42;;;26.45;;
69979;SDS011;57318;56.232;43.944;2023-05-19T05:52:04;42.90;;;25.55;;
69979;SDS011;57318;56.232;43.944;2023-05-19T05:54:32;52.20;;;30.00;;
69979;SDS011;57318;56.232;43.944;2023-05-19T05:56:58;53.05;;;28.02;;
69979;SDS011;57318;56.232;43.944;2023-05-19T05:59:24;51.15;;;29.67;;
69979;SDS011;57318;56.232;43.944;2023-05-19T06:01:50;47.80;;;26.23;;
69979;SDS011;57318;56.232;43.944;2023-05-19T06:04:15;63.80;;;35.58;;
69979;SDS011;57318;56.232;43.944;2023-05-19T06:06:41;61.38;;;32.85;;
69979;SDS011;57318;56.232;43.944;2023-05-19T06:09:07;46.63;;;25.67;;
69979;SDS011;57318;56.232;43.944;2023-05-19T06:11:32;38.88;;;21.63;;
69979;SDS011;57318;56.232;43.944;2023-05-19T06:13:58;41.22;;;23.45;;
69979;SDS011;57318;56.232;43.944;2023-05-19T06:16:24;35.03;;;20.00;;
69979;SDS011;57318;56.232;43.944;2023-05-19T06:18:50;35.08;;;20.45;;
69979;SDS011;57318;56.232;43.944;2023-05-19T06:21:15;40.97;;;23.33;;
69979;SDS011;57318;56.232;43.944;2023-05-19T06:23:42;45.40;;;22.42;;
69979;SDS011;57318;56.232;43.944;2023-05-19T06:26:07;45.22;;;23.20;;
69979;SDS011;57318;56.232;43.944;2023-05-19T06:28:33;41.00;;;23.40;;
69979;SDS011;57318;56.232;43.944;2023-05-19T06:30:59;35.45;;;21.58;;
69979;SDS011;57318;56.232;43.944;2023-05-19T06:33:25;34.95;;;19.98;;
69979;SDS011;57318;56.232;43.944;2023-05-19T06:35:51;39.75;;;19.50;;
69979;SDS011;57318;56.232;43.944;2023-05-19T06:38:16;30.98;;;19.60;;
69979;SDS011;57318;56.232;43.944;2023-05-19T06:40:42;29.92;;;16.40;;
69979;SDS011;57318;56.232;43.944;2023-05-19T06:43:08;28.58;;;18.65;;
69979;SDS011;57318;56.232;43.944;2023-05-19T06:45:34;35.03;;;18.73;;
69979;SDS011;57318;56.232;43.944;2023-05-19T06:48:00;39.00;;;20.10;;
69979;SDS011;57318;56.232;43.944;2023-05-19T06:50:26;40.28;;;22.73;;
69979;SDS011;57318;56.232;43.944;2023-05-19T06:52:52;35.45;;;19.45;;
69979;SDS011;57318;56.232;43.944;2023-05-19T06:55:17;32.33;;;18.88;;
69979;SDS011;57318;56.232;43.944;2023-05-19T06:57:45;27.17;;;17.30;;
69979;SDS011;57318;56.232;43.944;2023-05-19T07:02:36;30.25;;;15.25;;
69979;SDS011;57318;56.232;43.944;2023-05-19T07:05:03;20.33;;;12.90;;
69979;SDS011;57318;56.232;43.944;2023-05-19T07:07:29;16.45;;;11.60;;
69979;SDS011;57318;56.232;43.944;2023-05-19T07:09:55;21.08;;;11.60;;
69979;SDS011;57318;56.232;43.944;2023-05-19T07:12:21;16.10;;;10.52;;
69979;SDS011;57318;56.232;43.944;2023-05-19T07:14:47;15.95;;;10.63;;
69979;SDS011;57318;56.232;43.944;2023-05-19T07:17:12;20.35;;;10.57;;
69979;SDS011;57318;56.232;43.944;2023-05-19T07:19:38;15.90;;;10.35;;
69979;SDS011;57318;56.232;43.944;2023-05-19T07:22:04;15.20;;;9.85;;
69979;SDS011;57318;56.232;43.944;2023-05-19T07:24:30;13.35;;;11.75;;
69979;SDS011;57318;56.232;43.944;2023-05-19T07:26:56;11.65;;;10.40;;
69979;SDS011;57318;56.232;43.944;2023-05-19T07:29:22;13.10;;;10.80;;
69979;SDS011;57318;56.232;43.944;2023-05-19T07:31:48;18.40;;;10.77;;
69979;SDS011;57318;56.232;43.944;2023-05-19T07:34:18;16.40;;;10.40;;
69979;SDS011;57318;56.232;43.944;2023-05-19T07:36:46;12.60;;;11.30;;
69979;SDS011;57318;56.232;43.944;2023-05-19T07:39:11;20.15;;;12.65;;
69979;SDS011;57318;56.232;43.944;2023-05-19T07:41:37;17.92;;;11.95;;
69979;SDS011;57318;56.232;43.944;2023-05-19T07:44:03;14.75;;;12.02;;
69979;SDS011;57318;56.232;43.944;2023-05-19T07:46:32;21.38;;;12.63;;
69979;SDS011;57318;56.232;43.944;2023-05-19T07:49:02;24.23;;;13.30;;
69979;SDS011;57318;56.232;43.944;2023-05-19T07:51:28;21.02;;;11.82;;
69979;SDS011;57318;56.232;43.944;2023-05-19T07:53:54;22.10;;;11.68;;
69979;SDS011;57318;56.232;43.944;2023-05-19T07:56:20;14.02;;;10.90;;
69979;SDS011;57318;56.232;43.944;2023-05-19T07:58:46;24.05;;;10.93;;
69979;SDS011;57318;56.232;43.944;2023-05-19T08:01:11;18.77;;;10.90;;
69979;SDS011;57318;56.232;43.944;2023-05-19T08:03:37;16.30;;;10.82;;
69979;SDS011;57318;56.232;43.944;2023-05-19T08:06:03;18.77;;;10.10;;
69979;SDS011;57318;56.232;43.944;2023-05-19T08:08:29;14.55;;;10.10;;
69979;SDS011;57318;56.232;43.944;2023-05-19T08:10:54;13.25;;;9.70;;
69979;SDS011;57318;56.232;43.944;2023-05-19T08:13:20;15.15;;;10.10;;
69979;SDS011;57318;56.232;43.944;2023-05-19T08:15:46;14.13;;;10.57;;
69979;SDS011;57318;56.232;43.944;2023-05-19T08:18:12;20.23;;;9.90;;
69979;SDS011;57318;56.232;43.944;2023-05-19T08:20:37;16.55;;;9.45;;
69979;SDS011;57318;56.232;43.944;2023-05-19T08:23:03;18.00;;;9.20;;
69979;SDS011;57318;56.232;43.944;2023-05-19T08:25:29;12.93;;;8.98;;
69979;SDS011;57318;56.232;43.944;2023-05-19T08:27:55;19.23;;;9.10;;
69979;SDS011;57318;56.232;43.944;2023-05-19T08:30:21;15.73;;;9.27;;
69979;SDS011;57318;56.232;43.944;2023-05-19T08:32:46;13.43;;;9.23;;
69979;SDS011;57318;56.232;43.944;2023-05-19T08:35:12;16.83;;;9.18;;
69979;SDS011;57318;56.232;43.944;2023-05-19T08:37:38;15.65;;;9.65;;
69979;SDS011;57318;56.232;43.944;2023-05-19T08:40:05;21.45;;;9.90;;
69979;SDS011;57318;56.232;43.944;2023-05-19T08:42:33;19.52;;;9.65;;
69979;SDS011;57318;56.232;43.944;2023-05-19T08:44:59;15.25;;;9.68;;
69979;SDS011;57318;56.232;43.944;2023-05-19T08:47:30;12.15;;;8.90;;
69979;SDS011;57318;56.232;43.944;2023-05-19T08:49:59;11.70;;;9.18;;
69979;SDS011;57318;56.232;43.944;2023-05-19T08:52:34;17.02;;;9.27;;
69979;SDS011;57318;56.232;43.944;2023-05-19T08:58:00;22.02;;;9.82;;
69979;SDS011;57318;56.232;43.944;2023-05-19T09:00:28;16.25;;;9.73;;
69979;SDS011;57318;56.232;43.944;2023-05-19T09:02:54;20.67;;;10.07;;
69979;SDS011;57318;56.232;43.944;2023-05-19T09:05:21;17.98;;;9.27;;
69979;SDS011;57318;56.232;43.944;2023-05-19T09:07:48;20.38;;;8.85;;
69979;SDS011;57318;56.232;43.944;2023-05-19T09:10:14;19.30;;;9.77;;
69979;SDS011;57318;56.232;43.944;2023-05-19T09:12:42;18.60;;;8.98;;
69979;SDS011;57318;56.232;43.944;2023-05-19T09:15:15;23.45;;;9.30;;
69979;SDS011;57318;56.232;43.944;2023-05-19T09:17:45;15.13;;;8.98;;
69979;SDS011;57318;56.232;43.944;2023-05-19T09:20:13;12.30;;;9.20;;
69979;SDS011;57318;56.232;43.944;2023-05-19T09:22:41;14.55;;;8.80;;
69979;SDS011;57318;56.232;43.944;2023-05-19T09:25:26;25.20;;;9.48;;
69979;SDS011;57318;56.232;43.944;2023-05-19T09:27:52;23.45;;;8.52;;
69979;SDS011;57318;56.232;43.944;2023-05-19T09:30:19;25.25;;;9.82;;
69979;SDS011;57318;56.232;43.944;2023-05-19T09:32:45;17.02;;;9.32;;
69979;SDS011;57318;56.232;43.944;2023-05-19T09:35:12;16.42;;;9.30;;
69979;SDS011;57318;56.232;43.944;2023-05-19T09:37:38;25.30;;;9.40;;
69979;SDS011;57318;56.232;43.944;2023-05-19T09:40:06;15.88;;;8.65;;
69979;SDS011;57318;56.232;43.944;2023-05-19T09:42:36;15.20;;;9.38;;
69979;SDS011;57318;56.232;43.944;2023-05-19T09:45:02;14.35;;;8.82;;
69979;SDS011;57318;56.232;43.944;2023-05-19T09:47:34;16.15;;;9.23;;
69979;SDS011;57318;56.232;43.944;2023-05-19T09:50:04;16.50;;;8.80;;
69979;SDS011;57318;56.232;43.944;2023-05-19T09:52:36;17.05;;;8.98;;
69979;SDS011;57318;56.232;43.944;2023-05-19T09:55:04;15.20;;;9.15;;
69979;SDS011;57318;56.232;43.944;2023-05-19T09:57:32;16.00;;;8.30;;
69979;SDS011;57318;56.232;43.944;2023-05-19T10:00:01;14.70;;;8.68;;
69979;SDS011;57318;56.232;43.944;2023-05-19T10:02:39;13.73;;;8.68;;
69979;SDS011;57318;56.232;43.944;2023-05-19T10:05:07;20.00;;;8.77;;
69979;SDS011;57318;56.232;43.944;2023-05-19T10:07:42;10.73;;;7.95;;
69979;SDS011;57318;56.232;43.944;2023-05-19T10:10:13;11.75;;;8.45;;
69979;SDS011;57318;56.232;43.944;2023-05-19T10:12:40;15.43;;;7.85;;
69979;SDS011;57318;56.232;43.944;2023-05-19T10:15:07;10.65;;;7.85;;
69979;SDS011;57318;56.232;43.944;2023-05-19T10:17:36;12.38;;;8.20;;
69979;SDS011;57318;56.232;43.944;2023-05-19T10:20:05;14.98;;;7.28;;
69979;SDS011;57318;56.232;43.944;2023-05-19T10:22:33;11.63;;;7.20;;
69979;SDS011;57318;56.232;43.944;2023-05-19T10:24:58;11.18;;;6.82;;
69979;SDS011;57318;56.232;43.944;2023-05-19T10:27:24;12.73;;;6.85;;
69979;SDS011;57318;56.232;43.944;2023-05-19T10:29:52;11.95;;;7.13;;
69979;SDS011;57318;56.232;43.944;2023-05-19T10:32:22;11.60;;;6.75;;
69979;SDS011;57318;56.232;43.944;2023-05-19T10:39:53;15.80;;;6.85;;
69979;SDS011;57318;56.232;43.944;2023-05-19T10:45:07;17.05;;;6.38;;
69979;SDS011;57318;56.232;43.944;2023-05-19T10:47:34;11.00;;;6.18;;
69979;SDS011;57318;56.232;43.944;2023-05-19T10:50:00;16.88;;;6.43;;
69979;SDS011;57318;56.232;43.944;2023-05-19T10:54:55;16.50;;;6.47;;
69979;SDS011;57318;56.232;43.944;2023-05-19T10:57:25;13.63;;;6.07;;
69979;SDS011;57318;56.232;43.944;2023-05-19T10:59:57;10.20;;;6.40;;
69979;SDS011;57318;56.232;43.944;2023-05-19T11:02:41;11.80;;;6.20;;
69979;SDS011;57318;56.232;43.944;2023-05-19T11:05:12;11.82;;;5.90;;
69979;SDS011;57318;56.232;43.944;2023-05-19T11:07:41;10.80;;;5.72;;
69979;SDS011;57318;56.232;43.944;2023-05-19T11:10:08;9.52;;;5.75;;
69979;SDS011;57318;56.232;43.944;2023-05-19T11:12:41;9.60;;;5.57;;
69979;SDS011;57318;56.232;43.944;2023-05-19T11:15:13;9.98;;;5.53;;
69979;SDS011;57318;56.232;43.944;2023-05-19T11:17:40;8.07;;;5.65;;
69979;SDS011;57318;56.232;43.944;2023-05-19T11:20:19;9.77;;;5.28;;
69979;SDS011;57318;56.232;43.944;2023-05-19T11:23:07;11.60;;;5.88;;
69979;SDS011;57318;56.232;43.944;2023-05-19T11:25:40;12.73;;;5.20;;
69979;SDS011;57318;56.232;43.944;2023-05-19T11:28:05;10.10;;;5.30;;
69979;SDS011;57318;56.232;43.944;2023-05-19T11:30:31;9.70;;;5.68;;
69979;SDS011;57318;56.232;43.944;2023-05-19T11:32:57;7.15;;;5.65;;
69979;SDS011;57318;56.232;43.944;2023-05-19T11:35:23;8.90;;;5.13;;
69979;SDS011;57318;56.232;43.944;2023-05-19T11:37:49;10.27;;;5.97;;
69979;SDS011;57318;56.232;43.944;2023-05-19T11:40:19;11.10;;;5.93;;
69979;SDS011;57318;56.232;43.944;2023-05-19T11:42:46;10.52;;;6.50;;
69979;SDS011;57318;56.232;43.944;2023-05-19T11:45:11;17.45;;;6.72;;
69979;SDS011;57318;56.232;43.944;2023-05-19T11:47:37;17.38;;;6.75;;
69979;SDS011;57318;56.232;43.944;2023-05-19T11:50:03;25.35;;;7.50;;
69979;SDS011;57318;56.232;43.944;2023-05-19T11:52:30;16.25;;;6.65;;
69979;SDS011;57318;56.232;43.944;2023-05-19T11:57:25;12.48;;;7.15;;
69979;SDS011;57318;56.232;43.944;2023-05-19T12:02:18;14.35;;;7.57;;
69979;SDS011;57318;56.232;43.944;2023-05-19T12:04:46;13.13;;;7.68;;
69979;SDS011;57318;56.232;43.944;2023-05-19T12:07:17;15.68;;;8.07;;
69979;SDS011;57318;56.232;43.944;2023-05-19T12:09:45;19.50;;;8.07;;
69979;SDS011;57318;56.232;43.944;2023-05-19T12:12:12;10.90;;;7.65;;
69979;SDS011;57318;56.232;43.944;2023-05-19T12:14:40;12.10;;;8.20;;
69979;SDS011;57318;56.232;43.944;2023-05-19T12:19:39;14.52;;;7.97;;
69979;SDS011;57318;56.232;43.944;2023-05-19T12:22:07;17.95;;;8.15;;
69979;SDS011;57318;56.232;43.944;2023-05-19T12:27:10;13.23;;;7.80;;
69979;SDS011;57318;56.232;43.944;2023-05-19T12:29:42;19.25;;;7.35;;
69979;SDS011;57318;56.232;43.944;2023-05-19T12:32:14;15.13;;;7.32;;
69979;SDS011;57318;56.232;43.944;2023-05-19T12:34:39;25.13;;;7.40;;
69979;SDS011;57318;56.232;43.944;2023-05-19T12:39:32;20.90;;;6.72;;
69979;SDS011;57318;56.232;43.944;2023-05-19T12:42:07;17.25;;;6.75;;
69979;SDS011;57318;56.232;43.944;2023-05-19T12:44:38;22.70;;;6.18;;
69979;SDS011;57318;56.232;43.944;2023-05-19T12:47:10;18.52;;;6.47;;
69979;SDS011;57318;56.232;43.944;2023-05-19T12:49:52;16.95;;;6.55;;
69979;SDS011;57318;56.232;43.944;2023-05-19T12:52:19;21.15;;;6.30;;
69979;SDS011;57318;56.232;43.944;2023-05-19T12:54:47;13.77;;;5.90;;
69979;SDS011;57318;56.232;43.944;2023-05-19T12:57:47;16.90;;;6.50;;
69979;SDS011;57318;56.232;43.944;2023-05-19T13:00:18;17.98;;;5.80;;
69979;SDS011;57318;56.232;43.944;2023-05-19T13:02:56;15.98;;;5.63;;
69979;SDS011;57318;56.232;43.944;2023-05-19T13:05:45;17.77;;;5.47;;
69979;SDS011;57318;56.232;43.944;2023-05-19T13:08:16;12.88;;;4.70;;
69979;SDS011;57318;56.232;43.944;2023-05-19T13:10:45;8.98;;;4.70;;
69979;SDS011;57318;56.232;43.944;2023-05-19T13:13:11;8.45;;;4.38;;
69979;SDS011;57318;56.232;43.944;2023-05-19T13:18:10;8.45;;;3.92;;
69979;SDS011;57318;56.232;43.944;2023-05-19T13:20:41;12.88;;;4.13;;
69979;SDS011;57318;56.232;43.944;2023-05-19T13:23:09;16.40;;;4.03;;
69979;SDS011;57318;56.232;43.944;2023-05-19T13:25:35;12.32;;;3.78;;
69979;SDS011;57318;56.232;43.944;2023-05-19T13:28:02;16.13;;;3.90;;
69979;SDS011;57318;56.232;43.944;2023-05-19T13:30:33;18.63;;;4.10;;
69979;SDS011;57318;56.232;43.944;2023-05-19T13:33:00;17.73;;;4.13;;
69979;SDS011;57318;56.232;43.944;2023-05-19T13:35:26;14.85;;;4.47;;
69979;SDS011;57318;56.232;43.944;2023-05-19T13:37:52;16.95;;;3.75;;
69979;SDS011;57318;56.232;43.944;2023-05-19T13:40:18;21.80;;;4.20;;
69979;SDS011;57318;56.232;43.944;2023-05-19T13:42:46;11.07;;;3.08;;
69979;SDS011;57318;56.232;43.944;2023-05-19T13:45:12;12.90;;;3.20;;
69979;SDS011;57318;56.232;43.944;2023-05-19T13:47:38;6.00;;;2.80;;
69979;SDS011;57318;56.232;43.944;2023-05-19T13:50:04;15.18;;;2.85;;
69979;SDS011;57318;56.232;43.944;2023-05-19T13:52:31;12.93;;;2.78;;
69979;SDS011;57318;56.232;43.944;2023-05-19T13:54:57;7.30;;;2.47;;
69979;SDS011;57318;56.232;43.944;2023-05-19T13:57:23;6.73;;;2.00;;
69979;SDS011;57318;56.232;43.944;2023-05-19T13:59:50;7.85;;;2.20;;
69979;SDS011;57318;56.232;43.944;2023-05-19T14:02:16;10.90;;;2.80;;
69979;SDS011;57318;56.232;43.944;2023-05-19T14:04:42;11.65;;;2.50;;
69979;SDS011;57318;56.232;43.944;2023-05-19T14:07:08;12.10;;;2.73;;
69979;SDS011;57318;56.232;43.944;2023-05-19T14:12:00;7.13;;;2.35;;
69979;SDS011;57318;56.232;43.944;2023-05-19T14:16:52;6.72;;;2.15;;
69979;SDS011;57318;56.232;43.944;2023-05-19T14:19:18;6.88;;;2.00;;
69979;SDS011;57318;56.232;43.944;2023-05-19T14:21:44;3.35;;;1.92;;
69979;SDS011;57318;56.232;43.944;2023-05-19T14:24:10;3.93;;;1.70;;
69979;SDS011;57318;56.232;43.944;2023-05-19T14:26:35;2.60;;;1.70;;
69979;SDS011;57318;56.232;43.944;2023-05-19T14:29:01;4.80;;;1.80;;
69979;SDS011;57318;56.232;43.944;2023-05-19T14:31:27;6.63;;;1.80;;
69979;SDS011;57318;56.232;43.944;2023-05-19T14:33:53;3.10;;;1.77;;
69979;SDS011;57318;56.232;43.944;2023-05-19T14:36:19;5.83;;;1.80;;
69979;SDS011;57318;56.232;43.944;2023-05-19T14:38:45;1.90;;;1.45;;
69979;SDS011;57318;56.232;43.944;2023-05-19T14:41:11;1.87;;;1.60;;
69979;SDS011;57318;56.232;43.944;2023-05-19T14:43:36;3.63;;;1.43;;
69979;SDS011;57318;56.232;43.944;2023-05-19T14:46:02;2.00;;;1.70;;
69979;SDS011;57318;56.232;43.944;2023-05-19T14:48:28;7.53;;;1.70;;
69979;SDS011;57318;56.232;43.944;2023-05-19T14:50:53;6.03;;;1.87;;
69979;SDS011;57318;56.232;43.944;2023-05-19T14:53:19;3.50;;;1.60;;
69979;SDS011;57318;56.232;43.944;2023-05-19T14:55:47;4.30;;;1.90;;
69979;SDS011;57318;56.232;43.944;2023-05-19T14:58:16;4.88;;;1.80;;
69979;SDS011;57318;56.232;43.944;2023-05-19T15:00:42;4.45;;;2.60;;
69979;SDS011;57318;56.232;43.944;2023-05-19T15:03:08;5.30;;;2.70;;
69979;SDS011;57318;56.232;43.944;2023-05-19T15:05:35;6.05;;;2.75;;
69979;SDS011;57318;56.232;43.944;2023-05-19T15:08:01;4.05;;;2.15;;
69979;SDS011;57318;56.232;43.944;2023-05-19T15:10:27;4.63;;;2.72;;
69979;SDS011;57318;56.232;43.944;2023-05-19T15:12:53;4.20;;;2.20;;
69979;SDS011;57318;56.232;43.944;2023-05-19T15:15:21;6.32;;;4.18;;
69979;SDS011;57318;56.232;43.944;2023-05-19T15:17:47;5.40;;;2.28;;
69979;SDS011;57318;56.232;43.944;2023-05-19T15:20:13;5.97;;;1.37;;
69979;SDS011;57318;56.232;43.944;2023-05-19T15:22:39;1.53;;;1.43;;
69979;SDS011;57318;56.232;43.944;2023-05-19T15:25:05;3.20;;;1.60;;
69979;SDS011;57318;56.232;43.944;2023-05-19T15:27:32;2.03;;;1.67;;
69979;SDS011;57318;56.232;43.944;2023-05-19T15:29:59;2.55;;;1.60;;